createdAt,value
2019-04-30T00:00:38.456Z,101282.42
2019-04-30T00:03:19.556Z,101274.64
2019-04-30T00:05:49.357Z,101275.12
2019-04-30T00:08:18.191Z,101269.97
2019-04-30T00:10:46.787Z,101266.16
2019-04-30T00:13:20.622Z,101269.83
2019-04-30T00:15:48.016Z,101268.09
2019-04-30T00:18:16.094Z,101270.04
2019-04-30T00:20:46.743Z,101265.36
2019-04-30T00:23:17.759Z,101262.81
2019-04-30T00:25:46.041Z,101264.45
2019-04-30T00:28:15.523Z,101259.28
2019-04-30T00:30:47.631Z,101260.00
2019-04-30T00:33:21.655Z,101254.16
2019-04-30T00:35:45.383Z,101251.37
2019-04-30T00:38:15.127Z,101254.16
2019-04-30T00:40:45.018Z,101265.97
2019-04-30T00:43:15.445Z,101262.00
2019-04-30T00:45:47.405Z,101268.81
2019-04-30T00:48:19.874Z,101256.52
2019-04-30T00:50:45.721Z,101262.93
2019-04-30T00:53:16.483Z,101260.79
2019-04-30T00:55:48.379Z,101254.16
2019-04-30T00:58:17.704Z,101253.39
2019-04-30T01:00:46.880Z,101253.57
2019-04-30T01:03:17.796Z,101246.55
2019-04-30T01:05:47.925Z,101243.18
2019-04-30T01:08:21.094Z,101244.79
2019-04-30T01:10:47.001Z,101250.41
2019-04-30T01:13:15.636Z,101249.34
2019-04-30T01:15:49.076Z,101256.19
2019-04-30T01:18:14.593Z,101246.59
2019-04-30T01:20:43.379Z,101248.33
2019-04-30T01:23:14.884Z,101251.39
2019-04-30T01:25:49.944Z,101240.67
2019-04-30T01:28:16.280Z,101244.18
2019-04-30T01:30:45.574Z,101242.27
2019-04-30T01:33:14.257Z,101234.70
2019-04-30T01:35:42.838Z,101240.45
2019-04-30T01:38:12.821Z,101236.65
2019-04-30T01:40:47.435Z,101232.50
2019-04-30T01:43:13.765Z,101232.63
2019-04-30T01:45:42.342Z,101235.88
2019-04-30T01:48:12.791Z,101230.16
2019-04-30T01:50:42.108Z,101234.17
2019-04-30T01:53:13.143Z,101234.17
2019-04-30T01:55:45.851Z,101242.22
2019-04-30T01:58:16.132Z,101238.20
2019-04-30T02:00:49.465Z,101236.27
2019-04-30T02:03:19.312Z,101236.65
2019-04-30T02:05:49.905Z,101238.94
2019-04-30T02:08:19.540Z,101237.59
2019-04-30T02:10:49.123Z,101242.48
2019-04-30T02:13:18.959Z,101238.20
2019-04-30T02:15:49.228Z,101240.48
2019-04-30T02:18:19.497Z,101232.66
2019-04-30T02:20:49.696Z,101233.26
2019-04-30T02:23:19.630Z,101234.60
2019-04-30T02:25:48.994Z,101230.79
2019-04-30T02:28:18.993Z,101236.06
2019-04-30T02:30:50.539Z,101226.68
2019-04-30T02:33:19.891Z,101232.12
2019-04-30T02:36:06.556Z,101237.61
2019-04-30T02:38:39.744Z,101236.36
2019-04-30T02:41:09.979Z,101236.48
2019-04-30T02:43:41.387Z,101238.89
2019-04-30T02:46:12.236Z,101237.49
2019-04-30T02:48:43.231Z,101232.22
2019-04-30T02:51:14.019Z,101228.80
2019-04-30T02:53:51.743Z,101233.47
2019-04-30T02:56:26.053Z,101228.91
2019-04-30T02:58:52.770Z,101227.90
2019-04-30T03:01:21.351Z,101231.14
2019-04-30T03:03:50.310Z,101224.56
2019-04-30T03:06:20.554Z,101231.38
2019-04-30T03:08:51.062Z,101225.72
2019-04-30T03:11:20.636Z,101227.56
2019-04-30T03:13:49.822Z,101216.08
2019-04-30T03:16:20.763Z,101217.53
2019-04-30T03:18:54.062Z,101221.75
2019-04-30T03:21:40.719Z,101220.73
2019-04-30T03:24:10.814Z,101215.88
2019-04-30T03:26:40.253Z,101219.67
2019-04-30T03:29:11.166Z,101218.19
2019-04-30T03:31:43.943Z,101212.57
2019-04-30T03:34:16.758Z,101226.11
2019-04-30T03:36:40.565Z,101225.36
2019-04-30T03:39:10.905Z,101225.48
2019-04-30T03:41:41.262Z,101222.45
2019-04-30T03:44:20.833Z,101227.91
2019-04-30T03:46:40.604Z,101227.06
2019-04-30T03:49:12.519Z,101232.99
2019-04-30T03:51:40.394Z,101227.16
2019-04-30T03:54:10.505Z,101226.71
2019-04-30T03:56:40.070Z,101219.55
2019-04-30T03:59:10.624Z,101229.27
2019-04-30T04:01:53.413Z,101230.73
2019-04-30T04:04:30.959Z,101220.89
2019-04-30T04:07:10.480Z,101226.32
2019-04-30T04:09:52.719Z,101218.67
2019-04-30T04:12:22.064Z,101214.64
2019-04-30T04:14:51.343Z,101221.22
2019-04-30T04:17:20.657Z,101220.36
2019-04-30T04:19:52.425Z,101223.28
2019-04-30T04:22:21.533Z,101223.10
2019-04-30T04:24:50.935Z,101221.55
2019-04-30T04:27:19.943Z,101215.06
2019-04-30T04:29:50.933Z,101218.70
2019-04-30T04:32:23.601Z,101223.64
2019-04-30T04:34:50.393Z,101220.11
2019-04-30T04:37:20.280Z,101223.57
2019-04-30T04:39:50.108Z,101215.92
2019-04-30T04:42:19.799Z,101220.69
2019-04-30T04:44:50.089Z,101211.34
2019-04-30T04:47:20.159Z,101221.19
2019-04-30T04:49:53.086Z,101219.86
2019-04-30T04:52:21.728Z,101223.68
2019-04-30T04:54:50.683Z,101222.52
2019-04-30T04:57:22.586Z,101231.11
2019-04-30T04:59:50.304Z,101237.42
2019-04-30T05:02:32.340Z,101233.05
2019-04-30T05:05:00.070Z,101228.68
2019-04-30T05:07:28.851Z,101236.33
2019-04-30T05:10:00.596Z,101235.48
2019-04-30T05:12:29.601Z,101238.07
2019-04-30T05:14:59.793Z,101236.91
2019-04-30T05:17:29.623Z,101237.41
2019-04-30T05:19:58.992Z,101243.31
2019-04-30T05:22:29.169Z,101244.75
2019-04-30T05:24:58.825Z,101243.42
2019-04-30T05:27:27.591Z,101246.83
2019-04-30T05:29:56.205Z,101249.80
2019-04-30T05:32:24.773Z,101242.03
2019-04-30T05:34:53.528Z,101255.77
2019-04-30T05:37:22.462Z,101264.69
2019-04-30T05:39:51.212Z,101254.02
2019-04-30T05:42:19.797Z,101250.94
2019-04-30T05:44:49.699Z,101258.59
2019-04-30T05:47:19.594Z,101256.30
2019-04-30T05:49:48.895Z,101258.55
2019-04-30T05:52:19.678Z,101257.14
2019-04-30T05:54:48.746Z,101260.56
2019-04-30T05:57:19.571Z,101265.84
2019-04-30T05:59:48.739Z,101267.90
2019-04-30T06:02:19.353Z,101258.20
2019-04-30T06:04:48.995Z,101264.83
2019-04-30T06:07:18.865Z,101268.92
2019-04-30T06:09:53.274Z,101266.74
2019-04-30T06:12:39.244Z,101274.98
2019-04-30T06:15:15.927Z,101266.74
2019-04-30T06:18:00.067Z,101266.48
2019-04-30T06:20:21.058Z,101273.60
2019-04-30T06:22:52.217Z,101277.05
2019-04-30T06:25:31.133Z,101277.73
2019-04-30T06:27:51.737Z,101280.02
2019-04-30T06:30:20.415Z,101271.80
2019-04-30T06:32:49.672Z,101274.88
2019-04-30T06:35:19.332Z,101272.79
2019-04-30T06:37:48.893Z,101270.74
2019-04-30T06:40:19.569Z,101268.64
2019-04-30T06:42:49.570Z,101266.63
2019-04-30T06:45:19.164Z,101268.01
2019-04-30T06:47:49.083Z,101277.48
2019-04-30T06:50:19.410Z,101269.66
2019-04-30T06:52:56.230Z,101273.83
2019-04-30T06:55:19.295Z,101277.37
2019-04-30T06:57:49.698Z,101275.32
2019-04-30T07:00:20.708Z,101278.70
2019-04-30T07:02:49.520Z,101270.79
2019-04-30T07:05:18.617Z,101273.56
2019-04-30T07:08:09.251Z,101272.56
2019-04-30T07:10:36.797Z,101266.14
2019-04-30T07:13:13.114Z,101261.95
2019-04-30T07:15:41.691Z,101264.70
2019-04-30T07:18:10.445Z,101260.87
2019-04-30T07:20:39.019Z,101262.19
2019-04-30T07:23:09.343Z,101276.27
2019-04-30T07:25:39.113Z,101267.52
2019-04-30T07:28:08.983Z,101268.89
2019-04-30T07:30:39.617Z,101273.16
2019-04-30T07:33:09.530Z,101271.89
2019-04-30T07:35:39.948Z,101269.13
2019-04-30T07:38:09.300Z,101274.63
2019-04-30T07:40:39.043Z,101266.33
2019-04-30T07:43:09.064Z,101262.42
2019-04-30T07:45:39.228Z,101266.51
2019-04-30T07:48:09.293Z,101270.08
2019-04-30T07:50:41.167Z,101270.28
2019-04-30T07:53:11.287Z,101280.53
2019-04-30T07:55:39.385Z,101273.83
2019-04-30T07:58:09.072Z,101273.91
2019-04-30T08:00:40.317Z,101272.53
2019-04-30T08:03:10.743Z,101266.39
2019-04-30T08:05:41.250Z,101271.70
2019-04-30T08:08:20.805Z,101271.92
2019-04-30T08:10:40.196Z,101274.93
2019-04-30T08:13:14.170Z,101277.17
2019-04-30T08:15:42.111Z,101282.33
2019-04-30T08:18:09.402Z,101287.17
2019-04-30T08:20:39.303Z,101285.39
2019-04-30T08:23:20.355Z,101291.03
2019-04-30T08:25:39.063Z,101294.64
2019-04-30T08:28:09.083Z,101289.67
2019-04-30T08:30:39.162Z,101290.55
2019-04-30T08:33:09.419Z,101286.72
2019-04-30T08:35:39.730Z,101294.11
2019-04-30T08:38:10.751Z,101293.36
2019-04-30T08:40:53.102Z,101295.49
2019-04-30T08:43:09.894Z,101290.71
2019-04-30T08:45:38.665Z,101290.49
2019-04-30T08:48:09.083Z,101297.11
2019-04-30T08:50:39.293Z,101294.97
2019-04-30T08:53:10.458Z,101292.30
2019-04-30T08:55:39.164Z,101280.33
2019-04-30T08:58:12.444Z,101293.31
2019-04-30T09:00:38.552Z,101291.35
2019-04-30T09:03:09.227Z,101288.22
2019-04-30T09:05:39.465Z,101282.59
2019-04-30T09:08:09.695Z,101279.91
2019-04-30T09:10:39.310Z,101277.37
2019-04-30T09:13:09.122Z,101275.05
2019-04-30T09:15:37.840Z,101271.67
2019-04-30T09:18:10.244Z,101266.08
2019-04-30T09:20:36.933Z,101266.28
2019-04-30T09:23:05.611Z,101264.69
2019-04-30T09:25:34.214Z,101253.74
2019-04-30T09:28:04.453Z,101257.84
2019-04-30T09:30:33.249Z,101267.00
2019-04-30T09:33:01.826Z,101267.14
2019-04-30T09:35:32.205Z,101270.38
2019-04-30T09:38:01.956Z,101268.00
2019-04-30T09:40:32.573Z,101274.61
2019-04-30T09:43:01.202Z,101274.62
2019-04-30T09:45:29.809Z,101274.97
2019-04-30T09:47:59.269Z,101277.41
2019-04-30T09:50:28.942Z,101268.00
2019-04-30T09:53:00.140Z,101262.95
2019-04-30T09:55:29.105Z,101259.37
2019-04-30T09:57:58.874Z,101254.88
2019-04-30T10:00:29.493Z,101257.98
2019-04-30T10:02:59.818Z,101251.84
2019-04-30T10:05:29.351Z,101256.95
2019-04-30T10:07:59.452Z,101246.31
2019-04-30T10:10:29.953Z,101244.70
2019-04-30T10:12:59.251Z,101235.41
2019-04-30T10:15:35.348Z,101240.56
2019-04-30T10:18:03.981Z,101242.20
2019-04-30T10:20:43.868Z,101234.39
2019-04-30T10:23:12.442Z,101229.85
2019-04-30T10:25:41.151Z,101226.55
2019-04-30T10:28:10.118Z,101224.15
2019-04-30T10:30:38.957Z,101220.38
2019-04-30T10:33:09.789Z,101221.91
2019-04-30T10:35:38.623Z,101213.09
2019-04-30T10:38:09.708Z,101218.50
2019-04-30T10:40:39.003Z,101219.36
2019-04-30T10:43:08.923Z,101210.66
2019-04-30T10:45:38.778Z,101215.73
2019-04-30T10:48:07.540Z,101206.63
2019-04-30T10:50:36.149Z,101208.17
2019-04-30T10:53:05.154Z,101201.30
2019-04-30T10:55:33.731Z,101205.80
2019-04-30T10:58:02.309Z,101195.03
2019-04-30T11:00:41.609Z,101197.58
2019-04-30T11:03:19.204Z,101194.09
2019-04-30T11:05:41.346Z,101190.64
2019-04-30T11:08:10.282Z,101200.44
2019-04-30T11:10:39.913Z,101186.87
2019-04-30T11:13:08.715Z,101182.75
2019-04-30T11:15:39.279Z,101183.58
2019-04-30T11:18:07.742Z,101184.46
2019-04-30T11:20:36.707Z,101178.22
2019-04-30T11:23:14.249Z,101180.89
2019-04-30T11:25:37.476Z,101168.17
2019-04-30T11:28:07.507Z,101169.33
2019-04-30T11:30:39.014Z,101168.23
2019-04-30T11:33:07.295Z,101164.98
2019-04-30T11:35:36.026Z,101168.66
2019-04-30T11:38:04.701Z,101166.11
2019-04-30T11:40:36.832Z,101168.57
2019-04-30T11:43:04.171Z,101162.50
2019-04-30T11:45:53.806Z,101166.54
2019-04-30T11:48:22.383Z,101150.77
2019-04-30T11:50:50.990Z,101152.54
2019-04-30T11:53:25.468Z,101151.92
2019-04-30T11:55:49.921Z,101143.34
2019-04-30T11:58:21.595Z,101148.78
2019-04-30T12:00:49.472Z,101138.94
2019-04-30T12:03:19.150Z,101142.07
2019-04-30T12:05:49.097Z,101138.56
2019-04-30T12:08:26.548Z,101133.25
2019-04-30T12:10:59.896Z,101130.23
2019-04-30T12:13:29.887Z,101134.36
2019-04-30T12:15:59.022Z,101127.58
2019-04-30T12:18:27.770Z,101124.03
2019-04-30T12:20:56.354Z,101124.26
2019-04-30T12:23:25.077Z,101119.55
2019-04-30T12:25:53.836Z,101117.66
2019-04-30T12:28:22.440Z,101124.16
2019-04-30T12:30:51.020Z,101120.56
2019-04-30T12:33:19.591Z,101117.48
2019-04-30T12:35:49.188Z,101111.36
2019-04-30T12:38:19.252Z,101109.60
2019-04-30T12:40:47.945Z,101109.58
2019-04-30T12:43:16.579Z,101110.12
2019-04-30T12:45:45.228Z,101111.34
2019-04-30T12:48:15.546Z,101109.82
2019-04-30T12:50:49.178Z,101110.06
2019-04-30T12:53:19.533Z,101107.95
2019-04-30T12:55:49.754Z,101100.38
2019-04-30T12:58:20.727Z,101106.03
2019-04-30T13:00:49.206Z,101100.91
2019-04-30T13:03:17.796Z,101098.77
2019-04-30T13:05:46.514Z,101094.13
2019-04-30T13:08:15.685Z,101096.36
2019-04-30T13:10:45.208Z,101092.83
2019-04-30T13:13:14.788Z,101084.91
2019-04-30T13:15:43.861Z,101088.56
2019-04-30T13:18:12.447Z,101091.67
2019-04-30T13:20:41.172Z,101085.58
2019-04-30T13:23:09.823Z,101088.17
2019-04-30T13:25:50.358Z,101076.86
2019-04-30T13:28:13.069Z,101078.53
2019-04-30T13:30:42.652Z,101084.83
2019-04-30T13:33:12.872Z,101080.61
2019-04-30T13:35:41.454Z,101074.58
2019-04-30T13:38:20.581Z,101081.77
2019-04-30T13:40:53.492Z,101076.38
2019-04-30T13:43:40.258Z,101070.87
2019-04-30T13:46:08.989Z,101064.84
2019-04-30T13:48:37.649Z,101051.15
2019-04-30T13:51:06.235Z,101049.19
2019-04-30T13:53:34.745Z,101051.53
2019-04-30T13:56:03.361Z,101045.30
2019-04-30T13:58:31.942Z,101045.33
2019-04-30T14:01:00.595Z,101042.53
2019-04-30T14:03:30.822Z,101044.20
2019-04-30T14:05:59.568Z,101041.00
2019-04-30T14:08:29.809Z,101036.96
2019-04-30T14:10:59.195Z,101028.93
2019-04-30T14:13:27.969Z,101029.82
2019-04-30T14:15:56.591Z,101026.74
2019-04-30T14:18:30.778Z,101024.32
2019-04-30T14:20:55.612Z,101022.20
2019-04-30T14:23:24.256Z,101022.61
2019-04-30T14:25:56.610Z,101017.45
2019-04-30T14:28:23.192Z,101015.90
2019-04-30T14:30:51.837Z,101011.78
2019-04-30T14:33:26.384Z,101013.09
2019-04-30T14:35:50.796Z,101008.62
2019-04-30T14:40:50.414Z,101008.22
2019-04-30T14:43:30.045Z,101005.95
2019-04-30T14:46:01.720Z,100994.61
2019-04-30T14:48:40.599Z,101009.05
2019-04-30T14:51:08.511Z,101004.57
2019-04-30T14:53:39.137Z,101008.77
2019-04-30T14:56:19.678Z,101004.88
2019-04-30T14:58:52.785Z,101003.23
2019-04-30T15:01:22.978Z,100999.19
2019-04-30T15:03:51.644Z,101002.46
2019-04-30T15:06:20.260Z,101000.11
2019-04-30T15:08:49.485Z,101005.22
2019-04-30T15:11:19.051Z,100995.67
2019-04-30T15:13:49.396Z,101000.59
2019-04-30T15:16:18.187Z,100996.66
2019-04-30T15:18:46.685Z,100991.53
2019-04-30T15:21:15.302Z,101001.34
2019-04-30T15:23:56.377Z,100997.58
2019-04-30T15:26:22.883Z,100992.59
2019-04-30T15:28:49.204Z,100996.26
2019-04-30T15:31:18.939Z,100995.75
2019-04-30T15:34:02.207Z,100996.11
2019-04-30T15:36:22.508Z,100991.36
2019-04-30T15:39:08.162Z,101002.55
2019-04-30T15:41:36.806Z,100997.79
2019-04-30T15:44:05.852Z,100999.75
2019-04-30T15:46:34.502Z,100990.94
2019-04-30T15:49:03.105Z,101000.58
2019-04-30T15:51:31.740Z,100996.64
2019-04-30T15:54:00.318Z,100996.60
2019-04-30T15:56:37.025Z,100992.30
2019-04-30T15:59:13.391Z,100990.00
2019-04-30T16:01:43.942Z,100989.13
2019-04-30T16:04:14.167Z,100988.19
2019-04-30T16:06:42.746Z,100990.18
2019-04-30T16:09:13.026Z,100984.88
2019-04-30T16:11:44.441Z,100987.09
2019-04-30T16:14:18.594Z,100976.20
2019-04-30T16:17:00.753Z,100982.78
2019-04-30T16:19:29.368Z,100984.27
2019-04-30T16:21:57.977Z,100977.11
2019-04-30T16:24:28.662Z,100981.11
2019-04-30T16:26:56.921Z,100981.92
2019-04-30T16:29:25.496Z,100980.36
2019-04-30T16:31:54.161Z,100980.17
2019-04-30T16:34:22.850Z,100982.33
2019-04-30T16:36:51.432Z,100979.56
2019-04-30T16:39:20.073Z,100976.78
2019-04-30T16:41:49.660Z,100979.47
2019-04-30T16:44:19.134Z,100967.91
2019-04-30T16:46:49.906Z,100969.25
2019-04-30T16:49:18.282Z,100965.30
2019-04-30T16:51:46.930Z,100967.12
2019-04-30T16:54:15.513Z,100972.95
2019-04-30T16:56:44.185Z,100968.25
2019-04-30T16:59:14.403Z,100967.83
2019-04-30T17:01:43.047Z,100966.38
2019-04-30T17:04:22.422Z,100969.69
2019-04-30T17:07:05.159Z,100968.56
2019-04-30T17:09:35.339Z,100962.93
2019-04-30T17:12:05.558Z,100963.16
2019-04-30T17:14:35.783Z,100963.59
2019-04-30T17:17:04.372Z,100970.94
2019-04-30T17:19:32.983Z,100970.87
2019-04-30T17:22:01.544Z,100971.98
2019-04-30T17:24:30.384Z,100970.36
2019-04-30T17:26:59.343Z,100969.45
2019-04-30T17:29:27.905Z,100973.23
2019-04-30T17:31:56.502Z,100970.05
2019-04-30T17:34:25.047Z,100969.27
2019-04-30T17:36:53.795Z,100978.66
2019-04-30T17:39:22.653Z,100978.73
2019-04-30T17:41:51.274Z,100982.50
2019-04-30T17:44:19.859Z,100987.16
2019-04-30T17:46:50.207Z,100988.06
2019-04-30T17:49:19.090Z,100984.61
2019-04-30T17:51:49.058Z,100985.18
2019-04-30T17:54:17.872Z,100986.81
2019-04-30T17:56:46.717Z,100985.16
2019-04-30T17:59:15.528Z,100984.90
2019-04-30T18:01:52.487Z,100981.05
2019-04-30T18:04:22.203Z,100985.65
2019-04-30T18:06:50.900Z,100975.08
2019-04-30T18:09:19.704Z,100985.45
2019-04-30T18:11:49.561Z,100981.58
2019-04-30T18:14:18.813Z,100988.91
2019-04-30T18:16:48.649Z,100987.75
2019-04-30T18:19:34.349Z,100983.20
2019-04-30T18:22:04.736Z,100982.48
2019-04-30T18:24:35.284Z,100985.66
2019-04-30T18:27:11.382Z,100985.02
2019-04-30T18:29:40.220Z,100985.19
2019-04-30T18:32:09.380Z,100981.34
2019-04-30T18:34:39.116Z,100989.25
2019-04-30T18:37:09.030Z,100993.83
2019-04-30T18:39:38.583Z,100987.89
2019-04-30T18:42:10.852Z,100993.73
2019-04-30T18:44:38.062Z,100991.83
2019-04-30T18:47:08.931Z,100992.64
2019-04-30T18:49:39.422Z,100992.45
2019-04-30T18:52:09.088Z,100994.58
2019-04-30T18:54:39.839Z,100992.32
2019-04-30T18:57:09.720Z,100997.21
2019-04-30T18:59:39.313Z,100992.40
2019-04-30T19:02:10.331Z,100997.20
2019-04-30T19:04:40.965Z,100991.00
2019-04-30T19:07:18.915Z,100993.24
2019-04-30T19:10:09.085Z,100997.94
2019-04-30T19:12:50.319Z,101001.99
2019-04-30T19:16:21.414Z,101005.67
2019-04-30T19:18:49.501Z,101007.51
2019-04-30T19:21:20.459Z,101011.55
2019-04-30T19:23:51.379Z,101013.17
2019-04-30T19:26:22.200Z,101013.02
2019-04-30T19:28:53.309Z,101008.61
2019-04-30T19:31:24.674Z,101005.16
2019-04-30T19:33:55.396Z,101004.66
2019-04-30T19:36:34.918Z,101008.58
2019-04-30T19:38:59.744Z,101006.00
2019-04-30T19:41:30.595Z,101010.39
2019-04-30T19:44:01.194Z,101005.26
2019-04-30T19:46:32.240Z,101010.00
2019-04-30T19:49:03.697Z,101012.44
2019-04-30T19:51:34.950Z,101013.53
2019-04-30T19:54:05.629Z,101008.02
2019-04-30T19:57:30.095Z,101007.42
2019-04-30T20:00:01.949Z,101015.80
2019-04-30T20:02:32.975Z,101019.44
2019-04-30T20:05:04.084Z,101017.34
2019-04-30T20:07:35.429Z,101015.34
2019-04-30T20:10:09.047Z,101022.03
2019-04-30T20:12:40.024Z,101018.45
2019-04-30T20:15:19.278Z,101019.39
2019-04-30T20:17:45.566Z,101006.46
2019-04-30T20:20:16.391Z,101015.34
2019-04-30T20:22:47.143Z,101009.43
2019-04-30T20:25:19.068Z,101013.67
2019-04-30T20:27:50.379Z,101012.94
2019-04-30T20:30:20.896Z,101009.53
2019-04-30T20:32:51.512Z,101008.19
2019-04-30T20:35:22.922Z,101004.64
2019-04-30T20:38:12.938Z,101008.80
2019-04-30T20:40:57.097Z,101011.09
2019-04-30T20:43:16.151Z,101006.34
2019-04-30T20:45:45.885Z,101009.23
2019-04-30T20:48:15.807Z,101003.23
2019-04-30T20:50:45.784Z,101005.41
2019-04-30T20:53:16.272Z,100998.28
2019-04-30T20:55:46.141Z,100994.73
2019-04-30T20:58:16.446Z,100993.02
2019-04-30T21:00:46.299Z,100997.64
2019-04-30T21:03:15.888Z,101003.34
2019-04-30T21:05:45.580Z,100994.95
2019-04-30T21:08:15.779Z,100996.30
2019-04-30T21:10:45.726Z,100994.28
2019-04-30T21:13:14.718Z,100990.61
2019-04-30T21:15:43.487Z,100989.48
2019-04-30T21:18:13.110Z,100992.47
2019-04-30T21:20:42.716Z,100997.70
2019-04-30T21:23:11.434Z,100990.95
2019-04-30T21:25:40.206Z,100993.94
2019-04-30T21:28:09.735Z,100991.73
2019-04-30T21:30:38.528Z,100992.42
2019-04-30T21:33:25.408Z,100991.16
2019-04-30T21:35:55.747Z,100984.62
2019-04-30T21:38:24.326Z,100982.46
2019-04-30T21:40:53.029Z,100982.14
2019-04-30T21:43:21.749Z,100982.30
2019-04-30T21:45:50.397Z,100988.97
2019-04-30T21:48:19.298Z,100986.32
2019-04-30T21:50:49.774Z,100986.64
2019-04-30T21:53:19.551Z,100980.38
2019-04-30T21:55:49.660Z,100976.89
2019-04-30T21:58:20.479Z,100971.75
2019-04-30T22:01:10.608Z,100969.76
2019-04-30T22:03:40.172Z,100968.83
2019-04-30T22:06:10.663Z,100960.95
2019-04-30T22:08:39.409Z,100962.61
2019-04-30T22:11:09.715Z,100966.14
2019-04-30T22:13:39.612Z,100964.41
2019-04-30T22:16:08.886Z,100962.15
2019-04-30T22:18:37.455Z,100964.80
2019-04-30T22:21:06.030Z,100966.76
2019-04-30T22:23:34.614Z,100964.59
2019-04-30T22:26:03.182Z,100967.83
2019-04-30T22:28:31.810Z,100966.34
2019-04-30T22:31:00.461Z,100967.61
2019-04-30T22:33:29.279Z,100959.61
2019-04-30T22:35:59.624Z,100958.33
2019-04-30T22:38:32.973Z,100950.36
2019-04-30T22:41:01.578Z,100957.53
2019-04-30T22:43:30.200Z,100953.09
2019-04-30T22:46:03.364Z,100963.01
2019-04-30T22:48:31.937Z,100960.84
2019-04-30T22:51:00.557Z,100957.31
2019-04-30T22:53:29.130Z,100957.39
2019-04-30T22:55:57.735Z,100958.45
2019-04-30T22:58:26.302Z,100955.03
2019-04-30T23:00:56.477Z,100955.23
2019-04-30T23:03:33.024Z,100951.90
2019-04-30T23:06:01.715Z,100952.21
2019-04-30T23:08:30.688Z,100946.80
2019-04-30T23:10:59.255Z,100940.48
2019-04-30T23:13:27.884Z,100945.39
2019-04-30T23:15:56.462Z,100944.61
2019-04-30T23:18:25.029Z,100950.06
2019-04-30T23:20:53.599Z,100950.92
2019-04-30T23:23:22.171Z,100953.95
2019-04-30T23:25:50.676Z,100952.62
2019-04-30T23:28:19.281Z,100940.44
2019-04-30T23:30:47.908Z,100935.88
2019-04-30T23:33:16.517Z,100938.00
2019-04-30T23:35:45.081Z,100930.93
2019-04-30T23:38:13.653Z,100932.18
2019-04-30T23:40:47.572Z,100929.54
2019-04-30T23:43:16.251Z,100931.27
2019-04-30T23:45:45.558Z,100928.42
2019-04-30T23:48:14.135Z,100936.23
2019-04-30T23:50:42.861Z,100929.28
2019-04-30T23:53:11.534Z,100922.80
2019-04-30T23:55:40.099Z,100928.13
2019-04-30T23:58:08.741Z,100924.32
